Time;durP1;ratioP1;P1;durP2;ratioP2;P2;SDS_P1;SDS_P2;PMS_P1;PMS_P2;Temp;Humidity;BMP_temperature;BMP_pressure;BME280_temperature;BME280_humidity;BME280_pressure;Samples;Min_cycle;Max_cycle;Signal;HPM_P1;HPM_P2
2021/11/22 00:01:41;;;;;;;3.42;0.45;;;17.80;49.90;;;;;;5077584;28;20040;-54
2021/11/22 00:04:09;;;;;;;3.30;0.43;;;17.80;49.80;;;;;;5069724;28;20036;-52
2021/11/22 00:06:36;;;;;;;2.25;0.90;;;17.80;49.80;;;;;;5085270;28;20856;-54
2021/11/22 00:09:04;;;;;;;3.90;0.65;;;17.80;49.80;;;;;;5070106;28;20047;-55
2021/11/22 00:11:31;;;;;;;2.70;0.82;;;17.70;49.70;;;;;;5071428;28;20036;-55
2021/11/22 00:13:58;;;;;;;0.82;0.40;;;17.80;49.80;;;;;;5069979;28;20040;-55
2021/11/22 00:16:25;;;;;;;3.72;1.23;;;17.80;49.80;;;;;;5078485;28;20040;-53
2021/11/22 00:18:54;;;;;;;1.77;0.82;;;17.80;49.70;;;;;;5068554;28;20040;-53
2021/11/22 00:21:21;;;;;;;3.97;1.08;;;17.80;49.70;;;;;;5073671;28;20059;-54
2021/11/22 00:23:49;;;;;;;1.65;1.05;;;17.70;49.70;;;;;;5076187;28;20051;-55
2021/11/22 00:26:16;;;;;;;1.38;0.68;;;17.70;50.20;;;;;;5074575;28;20059;-53
2021/11/22 00:28:43;;;;;;;2.40;0.85;;;17.70;49.70;;;;;;5074016;28;20054;-53
2021/11/22 00:31:26;;;;;;;3.17;0.77;;;17.70;49.60;;;;;;5047111;28;20040;-53
2021/11/22 00:34:01;;;;;;;4.22;0.98;;;17.70;49.60;;;;;;5049666;28;20041;-53
2021/11/22 00:36:47;;;;;;;;;;;17.70;49.70;;;;;;5069596;28;20048;-53
2021/11/22 00:39:14;;;;;;;4.18;1.20;;;17.70;49.70;;;;;;5069332;28;20011;-53
2021/11/22 00:41:41;;;;;;;2.15;0.85;;;17.60;49.70;;;;;;5068577;28;20139;-51
2021/11/22 00:44:08;;;;;;;2.75;0.60;;;17.60;49.70;;;;;;5069898;28;20040;-54
2021/11/22 00:46:35;;;;;;;3.20;0.52;;;17.70;49.70;;;;;;5067982;28;20415;-54
2021/11/22 00:49:04;;;;;;;1.83;0.57;;;17.70;49.60;;;;;;5072025;28;20059;-53
2021/11/22 00:51:31;;;;;;;1.75;0.63;;;17.70;49.70;;;;;;5083394;28;20775;-52
2021/11/22 00:53:58;;;;;;;1.17;0.80;;;17.60;49.50;;;;;;5069347;28;20094;-53
2021/11/22 00:56:28;;;;;;;2.15;0.45;;;17.70;49.60;;;;;;5073686;28;20043;-50
2021/11/22 00:58:55;;;;;;;2.28;0.68;;;17.70;49.60;;;;;;5067068;28;20139;-55
2021/11/22 01:01:22;;;;;;;1.80;0.47;;;17.70;49.50;;;;;;5062429;28;20037;-51
2021/11/22 01:03:49;;;;;;;2.55;0.68;;;17.60;49.50;;;;;;5078192;28;20436;-50
2021/11/22 01:06:17;;;;;;;5.07;1.27;;;17.60;49.50;;;;;;5083269;28;20048;-51
2021/11/22 01:08:44;;;;;;;1.35;0.65;;;17.70;49.50;;;;;;5075455;28;20449;-54
2021/11/22 01:11:11;;;;;;;1.55;0.55;;;17.70;49.50;;;;;;5074476;28;20050;-53
2021/11/22 01:13:38;;;;;;;4.30;0.80;;;17.70;49.50;;;;;;5071980;28;20048;-51
2021/11/22 01:16:06;;;;;;;2.08;1.10;;;17.60;49.40;;;;;;5083958;28;20036;-49
2021/11/22 01:18:33;;;;;;;1.85;0.95;;;17.60;49.40;;;;;;5075898;28;20249;-52
2021/11/22 01:21:00;;;;;;;0.70;0.45;;;17.60;49.40;;;;;;5070924;28;20135;-51
2021/11/22 01:23:29;;;;;;;0.88;0.35;;;17.60;49.40;;;;;;5074374;28;20048;-51
2021/11/22 01:25:56;;;;;;;1.35;0.55;;;17.60;49.30;;;;;;5080002;28;20044;-54
2021/11/22 01:28:23;;;;;;;1.63;0.60;;;17.60;49.30;;;;;;5070729;28;20049;-52
2021/11/22 01:30:50;;;;;;;2.17;0.50;;;17.60;49.30;;;;;;5077916;28;20060;-53
2021/11/22 01:33:17;;;;;;;2.85;0.47;;;17.60;49.30;;;;;;5084992;28;20044;-53
2021/11/22 01:35:44;;;;;;;2.30;0.73;;;17.60;49.30;;;;;;5061446;28;20420;-53
2021/11/22 01:38:12;;;;;;;2.63;0.52;;;17.60;49.30;;;;;;5056394;28;20052;-55
2021/11/22 01:40:41;;;;;;;3.20;0.50;;;17.60;49.30;;;;;;5074172;28;20043;-54
2021/11/22 01:43:08;;;;;;;2.20;0.40;;;17.60;49.30;;;;;;5067267;28;20384;-53
2021/11/22 01:45:37;;;;;;;1.38;0.45;;;17.60;49.30;;;;;;5077003;28;20041;-51
2021/11/22 01:48:04;;;;;;;1.65;0.40;;;17.60;49.30;;;;;;5083117;28;20048;-50
2021/11/22 01:50:31;;;;;;;0.55;0.20;;;17.60;49.30;;;;;;5077665;28;20036;-53
2021/11/22 01:52:58;;;;;;;2.00;0.60;;;17.60;49.30;;;;;;5082547;28;20039;-53
2021/11/22 01:55:28;;;;;;;1.38;0.50;;;17.60;49.30;;;;;;5071350;28;20055;-53
2021/11/22 01:57:58;;;;;;;0.50;0.40;;;17.60;49.30;;;;;;5085339;28;20044;-54
2021/11/22 02:00:28;;;;;;;2.20;0.30;;;17.60;49.20;;;;;;5055779;28;20063;-54
2021/11/22 02:02:56;;;;;;;1.55;0.25;;;17.50;49.20;;;;;;5073788;28;20044;-54
2021/11/22 02:05:24;;;;;;;1.00;0.22;;;17.50;49.20;;;;;;5075387;28;20051;-55
2021/11/22 02:07:51;;;;;;;2.25;0.30;;;17.50;49.20;;;;;;5068868;28;20032;-53
2021/11/22 02:10:19;;;;;;;1.58;0.30;;;17.50;49.10;;;;;;5070008;28;20037;-54
2021/11/22 02:12:47;;;;;;;2.03;0.57;;;17.50;49.10;;;;;;5079830;28;20051;-53
2021/11/22 02:15:15;;;;;;;1.85;0.28;;;17.50;49.10;;;;;;5082054;28;20051;-54
2021/11/22 02:17:45;;;;;;;1.60;0.45;;;17.50;49.10;;;;;;5075446;28;20233;-56
2021/11/22 02:20:16;;;;;;;2.38;0.38;;;17.60;49.20;;;;;;5074084;28;20056;-54
2021/11/22 02:22:46;;;;;;;1.30;0.50;;;17.50;49.10;;;;;;5072223;28;20340;-54
2021/11/22 02:25:15;;;;;;;1.15;0.20;;;17.50;49.10;;;;;;5080539;28;20073;-55
2021/11/22 02:27:43;;;;;;;1.20;0.70;;;17.50;49.10;;;;;;5076478;28;20041;-53
2021/11/22 02:30:13;;;;;;;2.03;0.45;;;17.50;49.10;;;;;;5078369;28;20040;-52
2021/11/22 02:32:41;;;;;;;2.10;0.52;;;17.50;49.10;;;;;;5075490;28;20044;-54
2021/11/22 02:35:11;;;;;;;3.45;0.50;;;17.50;49.10;;;;;;5080348;28;20734;-55
2021/11/22 02:37:40;;;;;;;2.92;1.00;;;17.50;49.10;;;;;;5050739;28;20048;-53
2021/11/22 02:40:09;;;;;;;3.08;0.40;;;17.50;49.10;;;;;;5080959;28;20041;-53
2021/11/22 02:42:41;;;;;;;1.67;0.73;;;17.50;49.00;;;;;;5071611;28;20048;-52
2021/11/22 02:45:08;;;;;;;1.08;0.52;;;17.50;49.00;;;;;;5067291;28;20040;-51
2021/11/22 02:47:36;;;;;;;2.50;0.68;;;17.50;49.00;;;;;;5064925;28;20033;-53
2021/11/22 02:50:05;;;;;;;1.63;0.70;;;17.50;49.00;;;;;;5065473;28;20048;-55
2021/11/22 02:52:32;;;;;;;3.65;0.45;;;17.50;49.00;;;;;;5066093;28;20041;-56
2021/11/22 02:55:01;;;;;;;3.50;1.17;;;17.40;48.90;;;;;;5054593;28;20051;-52
2021/11/22 02:57:28;;;;;;;3.33;0.63;;;17.50;49.00;;;;;;5083244;28;20039;-53
2021/11/22 02:59:55;;;;;;;3.45;0.73;;;17.50;49.00;;;;;;5072393;28;20291;-53
2021/11/22 03:02:22;;;;;;;2.22;1.20;;;17.40;48.90;;;;;;5074453;28;20067;-52
2021/11/22 03:04:49;;;;;;;4.05;0.85;;;17.40;48.90;;;;;;5075569;28;20032;-50
2021/11/22 03:07:16;;;;;;;1.02;0.38;;;17.50;49.00;;;;;;5045180;28;20397;-53
2021/11/22 03:09:43;;;;;;;2.40;0.70;;;17.40;48.90;;;;;;5071797;28;20251;-53
2021/11/22 03:12:14;;;;;;;1.15;0.57;;;17.40;48.90;;;;;;5076434;28;20040;-52
2021/11/22 03:14:42;;;;;;;2.55;0.75;;;17.40;48.90;;;;;;5068823;28;20049;-54
2021/11/22 03:17:09;;;;;;;3.55;0.85;;;17.40;48.90;;;;;;5065446;28;20421;-54
2021/11/22 03:19:36;;;;;;;4.22;0.80;;;17.40;48.90;;;;;;5074576;28;20044;-55
2021/11/22 03:22:04;;;;;;;1.73;0.40;;;17.40;48.90;;;;;;5073546;28;20040;-55
2021/11/22 03:24:32;;;;;;;3.70;0.93;;;17.40;48.80;;;;;;5065898;28;20048;-55
2021/11/22 03:27:00;;;;;;;2.45;0.60;;;17.40;48.90;;;;;;5071847;28;20048;-53
2021/11/22 03:29:28;;;;;;;3.08;0.40;;;17.40;48.80;;;;;;5074626;28;20052;-53
2021/11/22 03:31:55;;;;;;;1.52;0.85;;;17.40;48.80;;;;;;5075711;28;20405;-56
2021/11/22 03:34:22;;;;;;;1.33;0.65;;;17.40;48.80;;;;;;5071450;28;20493;-54
2021/11/22 03:36:50;;;;;;;2.13;0.65;;;17.40;48.80;;;;;;5051221;28;20709;-53
2021/11/22 03:39:22;;;;;;;4.60;0.85;;;17.40;48.80;;;;;;5069842;28;20041;-51
2021/11/22 03:41:49;;;;;;;2.55;0.43;;;17.40;48.80;;;;;;5071010;28;20079;-53
2021/11/22 03:44:17;;;;;;;3.92;0.60;;;17.40;48.80;;;;;;5074432;28;20040;-52
2021/11/22 03:46:48;;;;;;;3.40;0.65;;;17.40;48.80;;;;;;5069036;28;20424;-53
2021/11/22 03:49:15;;;;;;;1.27;0.30;;;17.40;48.80;;;;;;5064809;28;20370;-54
2021/11/22 03:51:42;;;;;;;3.22;0.93;;;17.40;48.80;;;;;;5079532;28;20073;-53
2021/11/22 03:54:10;;;;;;;1.63;0.30;;;17.40;48.80;;;;;;5076111;28;20135;-50
2021/11/22 03:56:37;;;;;;;1.95;1.05;;;17.40;48.80;;;;;;5073813;28;20051;-50
2021/11/22 03:59:05;;;;;;;1.88;0.38;;;17.40;48.80;;;;;;5075334;28;20048;-50
2021/11/22 04:01:33;;;;;;;3.13;0.98;;;17.30;48.70;;;;;;5066886;28;20036;-51
2021/11/22 04:04:02;;;;;;;2.70;0.40;;;17.30;48.70;;;;;;5079880;28;20036;-54
2021/11/22 04:06:29;;;;;;;2.45;0.47;;;17.30;48.70;;;;;;5078398;28;20036;-55
2021/11/22 04:08:56;;;;;;;1.98;0.40;;;17.40;48.80;;;;;;5067608;28;20049;-52
2021/11/22 04:11:23;;;;;;;3.38;0.40;;;17.30;48.70;;;;;;5078232;28;20044;-49
2021/11/22 04:13:52;;;;;;;2.25;0.60;;;17.30;48.70;;;;;;5078060;28;20035;-53
2021/11/22 04:16:21;;;;;;;2.00;0.63;;;17.40;48.70;;;;;;5066431;28;20033;-53
2021/11/22 04:18:49;;;;;;;2.13;0.65;;;17.30;48.70;;;;;;5075212;28;20064;-55
2021/11/22 04:21:20;;;;;;;3.15;0.47;;;17.30;48.70;;;;;;5081470;28;20123;-55
2021/11/22 04:23:47;;;;;;;1.05;0.47;;;17.30;48.60;;;;;;5074930;28;20135;-53
2021/11/22 04:26:15;;;;;;;2.25;0.30;;;17.30;48.60;;;;;;5069555;28;20052;-50
2021/11/22 04:28:42;;;;;;;3.08;0.43;;;17.30;48.70;;;;;;5067272;28;20044;-55
2021/11/22 04:31:09;;;;;;;1.75;0.30;;;17.30;48.70;;;;;;5065201;28;20041;-53
2021/11/22 04:33:37;;;;;;;1.02;0.40;;;17.30;48.70;;;;;;5067879;28;20094;-53
2021/11/22 04:36:05;;;;;;;1.85;0.50;;;17.30;48.60;;;;;;5070170;28;20049;-53
2021/11/22 04:38:34;;;;;;;0.60;0.30;;;17.30;48.60;;;;;;5065481;28;20047;-56
2021/11/22 04:41:01;;;;;;;1.33;0.43;;;17.30;48.60;;;;;;5068068;28;20041;-52
2021/11/22 04:43:28;;;;;;;4.43;0.70;;;17.30;48.60;;;;;;5070525;28;20037;-49
2021/11/22 04:45:55;;;;;;;1.88;1.15;;;17.30;48.60;;;;;;5071197;28;20063;-54
2021/11/22 04:48:22;;;;;;;2.72;0.68;;;17.30;48.60;;;;;;5081316;28;20044;-53
2021/11/22 04:50:49;;;;;;;0.45;0.32;;;17.30;48.60;;;;;;5074494;28;20043;-50
2021/11/22 04:53:16;;;;;;;2.20;0.52;;;17.30;48.60;;;;;;5075356;28;20048;-55
2021/11/22 04:55:45;;;;;;;1.17;0.47;;;17.30;48.60;;;;;;5073605;28;20047;-54
2021/11/22 04:58:12;;;;;;;3.75;0.88;;;17.30;48.60;;;;;;5068231;28;20040;-51
2021/11/22 05:00:39;;;;;;;2.63;0.55;;;17.30;48.60;;;;;;5067747;28;20524;-53
2021/11/22 05:03:06;;;;;;;1.50;0.40;;;17.30;48.60;;;;;;5066830;28;20051;-52
2021/11/22 05:05:34;;;;;;;1.25;0.17;;;17.30;48.60;;;;;;5074843;28;20041;-52
2021/11/22 05:08:05;;;;;;;1.70;0.17;;;17.30;48.50;;;;;;5072178;28;20051;-48
2021/11/22 05:10:34;;;;;;;0.40;0.20;;;17.30;48.50;;;;;;5072381;28;20372;-51
2021/11/22 05:13:05;;;;;;;2.40;0.20;;;17.30;48.50;;;;;;5085769;28;20036;-54
2021/11/22 05:15:32;;;;;;;2.05;0.20;;;17.30;48.50;;;;;;5076830;28;20048;-53
2021/11/22 05:17:59;;;;;;;1.95;0.40;;;17.30;48.60;;;;;;5076291;28;20048;-54
2021/11/22 05:20:28;;;;;;;1.30;0.45;;;17.30;48.50;;;;;;5076023;28;20040;-52
2021/11/22 05:22:55;;;;;;;1.75;0.45;;;17.30;48.60;;;;;;5082942;28;20043;-52
2021/11/22 05:25:22;;;;;;;1.83;0.38;;;17.30;48.50;;;;;;5072481;28;20542;-55
2021/11/22 05:27:49;;;;;;;1.50;0.50;;;17.30;48.50;;;;;;5078213;28;20040;-51
2021/11/22 05:30:18;;;;;;;3.63;0.50;;;17.30;48.50;;;;;;5070146;28;20049;-52
2021/11/22 05:32:47;;;;;;;2.03;0.52;;;17.30;48.50;;;;;;5073183;28;20045;-50
2021/11/22 05:35:14;;;;;;;1.90;0.98;;;17.20;48.40;;;;;;5075095;28;20044;-53
2021/11/22 05:37:41;;;;;;;2.90;0.45;;;17.20;48.40;;;;;;5070604;28;20408;-55
2021/11/22 05:40:09;;;;;;;1.13;0.40;;;17.30;48.50;;;;;;5082709;28;20640;-55
2021/11/22 05:42:36;;;;;;;1.38;0.35;;;17.30;48.50;;;;;;5076523;28;20052;-52
2021/11/22 05:45:04;;;;;;;1.52;0.38;;;17.30;48.50;;;;;;5078226;28;20045;-54
2021/11/22 05:47:33;;;;;;;3.92;1.67;;;17.20;48.40;;;;;;5071650;28;20068;-54
2021/11/22 05:50:04;;;;;;;0.98;0.50;;;17.30;48.40;;;;;;5070427;28;20071;-54
2021/11/22 05:52:32;;;;;;;2.28;0.38;;;17.30;48.40;;;;;;5072209;28;20032;-55
2021/11/22 05:54:59;;;;;;;2.40;0.45;;;17.30;48.40;;;;;;5085202;28;20040;-55
2021/11/22 05:57:26;;;;;;;3.75;1.00;;;17.20;48.30;;;;;;5073233;28;20048;-55
2021/11/22 05:59:53;;;;;;;3.00;0.60;;;17.20;48.40;;;;;;5075832;28;20044;-55
2021/11/22 06:02:20;;;;;;;1.38;0.20;;;17.30;48.40;;;;;;5066793;28;20036;-56
2021/11/22 06:04:49;;;;;;;1.85;0.35;;;17.20;48.30;;;;;;5067951;28;20507;-53
2021/11/22 06:07:16;;;;;;;1.85;1.08;;;17.30;48.40;;;;;;5080062;28;20128;-54
2021/11/22 06:09:44;;;;;;;0.95;0.25;;;17.30;48.40;;;;;;5074500;28;20044;-52
2021/11/22 06:12:11;;;;;;;2.10;0.40;;;17.20;48.30;;;;;;5071544;28;20044;-53
2021/11/22 06:14:38;;;;;;;3.22;0.63;;;17.30;48.30;;;;;;5073574;28;20555;-51
2021/11/22 06:17:05;;;;;;;1.92;0.25;;;17.20;48.20;;;;;;5072513;28;20036;-54
2021/11/22 06:19:32;;;;;;;1.40;0.43;;;17.30;48.30;;;;;;5071080;28;20040;-50
2021/11/22 06:22:01;;;;;;;0.88;0.22;;;17.20;48.20;;;;;;5084631;28;20041;-54
2021/11/22 06:24:28;;;;;;;3.03;0.40;;;17.30;48.20;;;;;;5076790;28;20067;-56
2021/11/22 06:26:56;;;;;;;1.27;0.88;;;17.20;48.20;;;;;;5075752;28;20044;-51
2021/11/22 06:29:23;;;;;;;0.52;0.10;;;17.30;48.30;;;;;;5073514;28;20044;-55
2021/11/22 06:31:51;;;;;;;1.73;0.38;;;17.20;48.20;;;;;;5079252;28;20043;-54
2021/11/22 06:34:19;;;;;;;2.30;0.47;;;17.20;48.20;;;;;;5062296;28;20044;-53
2021/11/22 06:36:46;;;;;;;1.08;0.20;;;17.30;48.20;;;;;;5083353;28;20109;-51
2021/11/22 06:39:15;;;;;;;1.05;0.20;;;17.20;48.10;;;;;;5075432;28;20198;-55
2021/11/22 06:41:42;;;;;;;4.55;0.30;;;17.30;48.20;;;;;;5066531;28;20047;-54
2021/11/22 06:44:10;;;;;;;0.73;0.40;;;17.30;48.20;;;;;;5072656;28;20042;-52
2021/11/22 06:46:37;;;;;;;0.70;0.30;;;17.30;48.20;;;;;;5075778;28;20044;-52
2021/11/22 06:49:04;;;;;;;0.85;0.25;;;17.20;48.10;;;;;;5072698;28;20032;-54
2021/11/22 06:51:31;;;;;;;0.80;0.17;;;17.20;48.10;;;;;;5068853;28;20060;-51
2021/11/22 06:53:58;;;;;;;1.70;0.30;;;17.30;48.10;;;;;;5066950;28;20040;-59
2021/11/22 06:56:27;;;;;;;2.30;0.60;;;17.30;48.20;;;;;;5070116;28;20051;-51
2021/11/22 06:58:54;;;;;;;4.10;0.25;;;17.30;48.10;;;;;;5078195;28;20410;-50
2021/11/22 07:01:21;;;;;;;1.75;0.43;;;17.30;48.10;;;;;;5074663;28;20037;-49
2021/11/22 07:03:48;;;;;;;1.13;0.75;;;17.30;48.10;;;;;;5066315;28;20162;-52
2021/11/22 07:06:15;;;;;;;0.45;0.25;;;17.30;48.10;;;;;;5073841;28;20044;-53
2021/11/22 07:08:42;;;;;;;4.53;0.77;;;17.30;48.10;;;;;;5069598;28;20037;-52
2021/11/22 07:11:09;;;;;;;1.73;0.75;;;17.30;48.10;;;;;;5079733;28;20504;-49
2021/11/22 07:13:38;;;;;;;1.45;0.28;;;17.30;48.00;;;;;;5063109;28;20141;-51
2021/11/22 07:16:06;;;;;;;0.88;0.20;;;17.30;48.00;;;;;;5071177;28;20052;-52
2021/11/22 07:18:33;;;;;;;1.35;0.20;;;17.30;48.00;;;;;;5078350;28;20512;-51
2021/11/22 07:21:01;;;;;;;0.85;0.40;;;17.20;47.90;;;;;;5075836;28;20447;-50
2021/11/22 07:23:28;;;;;;;0.75;0.10;;;17.30;48.00;;;;;;5073073;28;20051;-56
2021/11/22 07:25:57;;;;;;;1.10;0.63;;;17.30;48.00;;;;;;5065918;28;20051;-53
2021/11/22 07:28:25;;;;;;;1.35;0.13;;;17.30;48.00;;;;;;5065246;28;20036;-54
2021/11/22 07:30:54;;;;;;;1.05;0.43;;;17.30;48.00;;;;;;5068697;28;20147;-54
2021/11/22 07:33:21;;;;;;;2.40;0.30;;;17.30;48.00;;;;;;5075008;28;20378;-55
2021/11/22 07:35:49;;;;;;;1.02;0.95;;;17.30;48.00;;;;;;5075752;28;20054;-55
2021/11/22 07:38:16;;;;;;;1.05;0.63;;;17.30;48.00;;;;;;5072150;28;20056;-56
2021/11/22 07:40:43;;;;;;;0.63;0.20;;;17.30;48.00;;;;;;5071765;28;20051;-51
2021/11/22 07:43:10;;;;;;;1.48;0.30;;;17.20;47.90;;;;;;5070474;28;20484;-53
2021/11/22 07:45:37;;;;;;;1.48;0.30;;;17.30;48.00;;;;;;5101885;28;20088;-52
2021/11/22 07:48:06;;;;;;;1.13;0.70;;;17.20;47.90;;;;;;5086646;28;20055;-54
2021/11/22 07:50:33;;;;;;;2.05;0.20;;;17.30;47.90;;;;;;5090682;28;20113;-51
2021/11/22 07:53:00;;;;;;;2.38;0.22;;;17.30;47.90;;;;;;5077002;28;20131;-54
2021/11/22 07:55:27;;;;;;;2.15;0.17;;;17.30;47.90;;;;;;5077427;28;20074;-53
2021/11/22 07:57:56;;;;;;;1.75;0.10;;;17.30;47.80;;;;;;5088232;28;20523;-52
2021/11/22 08:00:25;;;;;;;1.08;0.13;;;17.30;47.90;;;;;;5090880;28;20044;-52
2021/11/22 08:02:53;;;;;;;1.88;0.25;;;17.30;47.90;;;;;;5090360;28;20040;-55
2021/11/22 08:05:23;;;;;;;1.83;0.35;;;17.30;47.80;;;;;;5080432;28;20130;-53
2021/11/22 08:07:53;;;;;;;0.77;0.10;;;17.30;47.80;;;;;;5077638;28;20063;-55
2021/11/22 08:10:28;;;;;;;0.40;0.20;;;17.30;47.80;;;;;;5079386;28;20056;-53
2021/11/22 08:12:59;;;;;;;1.90;0.10;;;17.30;47.80;;;;;;5100293;28;20071;-55
2021/11/22 08:15:27;;;;;;;0.30;0.10;;;17.30;47.80;;;;;;5086962;28;20051;-53
2021/11/22 08:17:55;;;;;;;0.73;0.20;;;17.30;47.80;;;;;;5100049;28;20404;-53
2021/11/22 08:20:24;;;;;;;2.13;0.57;;;17.30;47.80;;;;;;5098176;28;20055;-54
2021/11/22 08:22:52;;;;;;;0.55;0.15;;;17.30;47.70;;;;;;5093219;28;20031;-54
2021/11/22 08:25:22;;;;;;;0.73;0.35;;;17.30;47.70;;;;;;5093358;28;20066;-55
2021/11/22 08:27:53;;;;;;;0.65;0.17;;;17.30;47.70;;;;;;5104856;28;20040;-53
2021/11/22 08:30:21;;;;;;;0.90;0.10;;;17.30;47.70;;;;;;5092547;28;20051;-51
2021/11/22 08:32:50;;;;;;;0.20;0.15;;;17.30;47.60;;;;;;5087093;28;20044;-53
2021/11/22 08:35:18;;;;;;;0.32;0.20;;;17.30;47.60;;;;;;5091770;28;20474;-53
2021/11/22 08:37:47;;;;;;;1.48;0.10;;;17.30;47.60;;;;;;5101547;28;20043;-50
2021/11/22 08:40:17;;;;;;;1.60;0.10;;;17.30;47.60;;;;;;5090692;28;20134;-50
2021/11/22 08:42:45;;;;;;;0.57;0.10;;;17.40;47.60;;;;;;5094824;28;20039;-55
2021/11/22 08:45:13;;;;;;;1.95;0.30;;;17.30;47.50;;;;;;5098966;28;20082;-54
2021/11/22 08:47:40;;;;;;;0.90;0.63;;;17.40;47.50;;;;;;5095262;28;20044;-52
2021/11/22 08:50:09;;;;;;;0.70;0.20;;;17.40;47.50;;;;;;5093349;28;20115;-54
2021/11/22 08:52:36;;;;;;;1.55;0.47;;;17.40;47.40;;;;;;5088485;28;20264;-53
2021/11/22 08:55:06;;;;;;;1.75;0.25;;;17.40;47.40;;;;;;5104571;28;20043;-54
2021/11/22 08:57:33;;;;;;;1.83;0.20;;;17.40;47.40;;;;;;5090299;28;20472;-54
2021/11/22 09:00:00;;;;;;;0.60;0.10;;;17.40;47.40;;;;;;5088380;28;20044;-53
2021/11/22 09:02:27;;;;;;;0.98;0.20;;;17.40;47.40;;;;;;5086320;28;20043;-53
2021/11/22 09:04:55;;;;;;;0.30;0.10;;;17.40;47.30;;;;;;5085429;28;20035;-52
2021/11/22 09:07:22;;;;;;;0.40;0.10;;;17.40;47.30;;;;;;5090220;28;20040;-50
2021/11/22 09:09:49;;;;;;;2.92;1.45;;;17.40;47.30;;;;;;5089949;28;20040;-55
2021/11/22 09:12:17;;;;;;;1.67;0.20;;;17.40;47.30;;;;;;5093537;28;20050;-51
2021/11/22 09:14:44;;;;;;;0.60;0.47;;;17.40;47.20;;;;;;5092179;28;20032;-53
2021/11/22 09:17:12;;;;;;;0.57;0.32;;;17.40;47.20;;;;;;5089515;28;20049;-52
2021/11/22 09:19:39;;;;;;;0.45;0.10;;;17.40;47.20;;;;;;5094189;28;20048;-52
2021/11/22 09:22:10;;;;;;;0.80;0.20;;;17.40;47.20;;;;;;5089717;28;20058;-52
2021/11/22 09:24:38;;;;;;;1.75;0.28;;;17.50;47.20;;;;;;5089474;28;20044;-52
2021/11/22 09:27:06;;;;;;;1.38;0.60;;;17.50;47.20;;;;;;5085719;28;20059;-50
2021/11/22 09:29:35;;;;;;;0.25;0.10;;;17.50;47.70;;;;;;5087447;28;20048;-48
2021/11/22 09:32:03;;;;;;;0.63;0.10;;;17.50;47.10;;;;;;5092407;28;20484;-52
2021/11/22 09:34:30;;;;;;;0.40;0.10;;;17.50;47.10;;;;;;5087180;28;20090;-52
2021/11/22 09:36:57;;;;;;;1.17;0.20;;;17.50;47.00;;;;;;5103614;28;20376;-50
2021/11/22 09:39:25;;;;;;;0.50;0.20;;;17.60;47.00;;;;;;5091722;28;20048;-52
2021/11/22 09:41:52;;;;;;;2.92;0.20;;;17.60;47.00;;;;;;5088242;28;20131;-57
2021/11/22 09:44:21;;;;;;;1.95;0.28;;;17.50;46.90;;;;;;5083771;28;20044;-52
2021/11/22 09:46:53;;;;;;;1.25;0.10;;;17.60;47.00;;;;;;5096129;28;20044;-53
2021/11/22 09:49:21;;;;;;;0.20;0.10;;;17.60;46.90;;;;;;5087130;28;20046;-55
2021/11/22 09:51:48;;;;;;;0.20;0.10;;;17.60;46.90;;;;;;5095650;28;20047;-53
2021/11/22 09:54:16;;;;;;;0.40;0.20;;;17.60;46.90;;;;;;5092073;28;20047;-53
2021/11/22 09:56:43;;;;;;;0.60;0.20;;;17.50;46.80;;;;;;5086595;28;20044;-52
2021/11/22 09:59:10;;;;;;;1.75;0.10;;;17.60;46.80;;;;;;5086548;28;20048;-55
2021/11/22 10:01:39;;;;;;;0.10;0.10;;;17.60;46.70;;;;;;5085617;28;20044;-52
2021/11/22 10:04:09;;;;;;;0.75;0.13;;;17.60;46.70;;;;;;5092742;28;20044;-55
2021/11/22 10:06:47;;;;;;;0.38;0.10;;;17.60;46.70;;;;;;5089633;28;20068;-53
2021/11/22 10:09:44;;;;;;;0.32;0.10;;;17.60;46.60;;;;;;5093203;28;20097;-53
2021/11/22 10:12:17;;;;;;;0.93;0.10;;;17.60;46.50;;;;;;5084480;28;20131;-52
2021/11/22 10:14:48;;;;;;;0.13;0.10;;;17.60;46.50;;;;;;5090268;28;20048;-55
2021/11/22 10:17:24;;;;;;;1.77;0.50;;;17.60;46.50;;;;;;5084159;28;20037;-54
2021/11/22 10:20:12;;;;;;;0.95;0.10;;;17.70;46.40;;;;;;5093230;28;20039;-52
2021/11/22 10:22:44;;;;;;;0.15;0.10;;;17.70;46.30;;;;;;5090046;28;20123;-54
2021/11/22 10:25:20;;;;;;;0.30;0.13;;;17.70;46.40;;;;;;5086089;28;20428;-53
2021/11/22 10:27:47;;;;;;;;;;;17.70;46.30;;;;;;5100705;28;20047;-55
2021/11/22 10:30:23;;;;;;;;;;;17.70;46.40;;;;;;5087575;28;19931;-51
2021/11/22 10:32:53;;;;;;;0.10;0.10;;;17.60;46.50;;;;;;5090489;28;20421;-52
2021/11/22 10:35:24;;;;;;;0.30;0.20;;;17.60;46.50;;;;;;5084787;28;20054;-55
2021/11/22 10:37:57;;;;;;;0.22;0.10;;;17.60;46.40;;;;;;5084791;28;20107;-55
2021/11/22 10:40:26;;;;;;;0.45;0.10;;;17.60;46.30;;;;;;5089159;28;20120;-55
2021/11/22 10:42:53;;;;;;;1.25;0.22;;;17.70;46.30;;;;;;5087135;28;20040;-55
2021/11/22 10:45:26;;;;;;;0.95;0.10;;;17.70;46.20;;;;;;5092902;28;20101;-53
2021/11/22 10:48:20;;;;;;;1.38;0.40;;;17.70;46.20;;;;;;5091681;28;20063;-51
2021/11/22 10:50:53;;;;;;;0.38;0.38;;;17.70;46.10;;;;;;5085403;28;20043;-51
2021/11/22 10:53:36;;;;;;;2.22;0.57;;;17.70;46.10;;;;;;5091753;28;20040;-50
2021/11/22 10:56:06;;;;;;;0.10;0.10;;;17.70;46.10;;;;;;5089955;28;20035;-48
2021/11/22 10:58:47;;;;;;;2.28;0.10;;;17.70;46.10;;;;;;5085604;28;20048;-54
2021/11/22 11:01:41;;;;;;;0.50;0.10;;;17.70;46.00;;;;;;5101950;28;20047;-52
2021/11/22 11:04:14;;;;;;;0.63;0.10;;;17.70;46.00;;;;;;5088685;28;20139;-49
2021/11/22 11:06:49;;;;;;;0.22;0.10;;;17.70;46.60;;;;;;5092331;28;20121;-53
2021/11/22 11:09:19;;;;;;;11.50;0.47;;;17.70;45.90;;;;;;5097377;28;20040;-52
2021/11/22 11:11:47;;;;;;;0.80;0.20;;;17.70;46.00;;;;;;5091686;28;20036;-50
2021/11/22 11:14:16;;;;;;;0.10;0.10;;;17.70;45.90;;;;;;5090772;28;20046;-53
2021/11/22 11:16:45;;;;;;;0.30;0.10;;;17.70;45.80;;;;;;5084323;28;20036;-49
2021/11/22 11:19:14;;;;;;;0.28;0.13;;;17.70;45.80;;;;;;5099554;28;20504;-54
2021/11/22 11:21:43;;;;;;;0.63;0.20;;;17.70;45.70;;;;;;5086029;28;20528;-51
2021/11/22 11:24:13;;;;;;;0.73;0.10;;;17.70;45.70;;;;;;5090439;28;20044;-48
2021/11/22 11:26:42;;;;;;;0.40;0.20;;;17.80;45.70;;;;;;5090824;28;20063;-53
2021/11/22 11:29:10;;;;;;;0.10;0.10;;;17.80;45.70;;;;;;5087916;28;20036;-51
2021/11/22 11:31:40;;;;;;;0.98;0.10;;;17.80;45.60;;;;;;5085513;28;20036;-54
2021/11/22 11:34:09;;;;;;;1.63;0.10;;;17.80;45.60;;;;;;5098607;28;20127;-50
2021/11/22 11:36:54;;;;;;;1.17;0.22;;;17.80;45.50;;;;;;5097562;28;20329;-54
2021/11/22 11:40:01;;;;;;;0.10;0.10;;;17.80;45.40;;;;;;5090703;28;20044;-55
2021/11/22 11:42:45;;;;;;;;;;;17.80;45.40;;;;;;5100951;28;20071;-55
2021/11/22 11:45:19;;;;;;;0.52;0.10;;;17.80;45.50;;;;;;5087397;28;20110;-51
2021/11/22 11:47:57;;;;;;;0.82;0.30;;;17.80;45.60;;;;;;5086191;28;20040;-49
2021/11/22 11:50:32;;;;;;;0.15;0.15;;;17.80;45.50;;;;;;5084687;28;20048;-51
2021/11/22 11:53:03;;;;;;;0.20;0.10;;;17.80;45.50;;;;;;5089344;28;20032;-53
2021/11/22 11:55:32;;;;;;;0.95;0.10;;;17.90;45.50;;;;;;5087197;28;20040;-55
2021/11/22 11:58:20;;;;;;;0.30;0.10;;;18.00;45.50;;;;;;5086946;28;20055;-55
2021/11/22 12:00:56;;;;;;;0.63;0.20;;;18.10;45.30;;;;;;5098778;28;20141;-52
2021/11/22 12:03:24;;;;;;;;;;;18.10;45.30;;;;;;5090897;28;20052;-52
2021/11/22 12:05:53;;;;;;;0.57;0.30;;;18.10;45.30;;;;;;5089468;28;19920;-53
2021/11/22 12:08:23;;;;;;;0.95;0.10;;;18.20;45.40;;;;;;5086940;28;20051;-51
2021/11/22 12:10:52;;;;;;;0.22;0.10;;;18.30;45.20;;;;;;5091416;28;20042;-52
2021/11/22 12:13:20;;;;;;;1.95;0.10;;;18.40;45.20;;;;;;5081392;28;20048;-54
2021/11/22 12:15:50;;;;;;;0.20;0.20;;;18.40;45.10;;;;;;5091217;28;20519;-56
2021/11/22 12:18:28;;;;;;;0.13;0.10;;;18.50;44.90;;;;;;5087975;28;20048;-56
2021/11/22 12:21:07;;;;;;;0.30;0.10;;;18.60;44.80;;;;;;5084456;28;20051;-55
2021/11/22 12:23:45;;;;;;;0.30;0.30;;;18.60;44.40;;;;;;5090612;28;20039;-53
2021/11/22 12:26:34;;;;;;;0.25;0.20;;;18.60;44.10;;;;;;5080152;28;20163;-50
2021/11/22 12:29:02;;;;;;;0.70;0.20;;;18.60;44.00;;;;;;5095073;28;20040;-54
2021/11/22 12:31:35;;;;;;;1.13;0.40;;;18.60;44.20;;;;;;5084302;28;20032;-54
2021/11/22 12:34:05;;;;;;;2.05;0.17;;;18.60;44.20;;;;;;5098669;28;20044;-55
2021/11/22 12:36:39;;;;;;;1.30;0.60;;;18.70;44.30;;;;;;5089376;28;20516;-55
2021/11/22 12:39:14;;;;;;;0.50;0.30;;;18.70;44.10;;;;;;5088673;28;20191;-52
2021/11/22 12:41:43;;;;;;;0.30;0.15;;;18.80;43.80;;;;;;5084837;28;20048;-52
2021/11/22 12:44:13;;;;;;;0.20;0.20;;;18.80;43.60;;;;;;5085558;28;20575;-54
2021/11/22 12:46:47;;;;;;;0.20;0.20;;;18.80;43.50;;;;;;5086130;28;20407;-52
2021/11/22 12:49:35;;;;;;;0.43;0.43;;;18.80;43.40;;;;;;5082864;28;20522;-49
2021/11/22 12:52:21;;;;;;;4.03;0.47;;;18.80;43.00;;;;;;5084066;28;20044;-50
2021/11/22 12:54:51;;;;;;;1.08;0.98;;;18.80;43.00;;;;;;5086160;28;20048;-54
2021/11/22 12:57:23;;;;;;;0.45;0.20;;;18.70;43.10;;;;;;5094425;28;20044;-51
2021/11/22 13:00:15;;;;;;;1.38;0.20;;;18.70;42.90;;;;;;5093356;28;20081;-54